createdAt,value
2023-01-22T00:00:06.701Z,13.95
2023-01-22T00:02:36.173Z,14.48
2023-01-22T00:05:04.190Z,14.77
2023-01-22T00:07:30.752Z,16.23
2023-01-22T00:09:57.326Z,14.85
2023-01-22T00:12:23.893Z,12.50
2023-01-22T00:14:50.876Z,14.27
2023-01-22T00:17:17.624Z,13.88
2023-01-22T00:19:44.076Z,13.98
2023-01-22T00:22:11.559Z,12.15
2023-01-22T00:24:39.967Z,14.48
2023-01-22T00:27:06.880Z,12.27
2023-01-22T00:29:33.273Z,11.88
2023-01-22T00:31:59.837Z,11.85
2023-01-22T00:34:26.226Z,14.00
2023-01-22T00:36:54.053Z,13.15
2023-01-22T00:39:21.643Z,13.25
2023-01-22T00:41:49.654Z,12.55
2023-01-22T00:44:16.151Z,13.43
2023-01-22T00:46:42.671Z,11.82
2023-01-22T00:49:09.114Z,14.25
2023-01-22T00:51:36.700Z,13.48
2023-01-22T00:54:03.257Z,13.35
2023-01-22T00:56:30.042Z,12.77
2023-01-22T00:58:58.550Z,14.30
2023-01-22T01:01:25.341Z,12.10
2023-01-22T01:03:51.921Z,13.52
2023-01-22T01:06:21.253Z,13.73
2023-01-22T01:08:48.725Z,14.02
2023-01-22T01:11:21.943Z,12.55
2023-01-22T01:13:49.709Z,14.38
2023-01-22T01:16:22.185Z,12.48
2023-01-22T01:18:49.009Z,13.73
2023-01-22T01:21:17.944Z,13.60
2023-01-22T01:23:44.848Z,14.23
2023-01-22T01:26:13.970Z,13.73
2023-01-22T01:28:41.574Z,13.35
2023-01-22T01:31:11.977Z,13.48
2023-01-22T01:33:38.606Z,12.73
2023-01-22T01:36:08.249Z,13.43
2023-01-22T01:38:34.701Z,12.60
2023-01-22T01:41:01.390Z,12.05
2023-01-22T01:43:28.222Z,13.50
2023-01-22T01:45:56.791Z,11.40
2023-01-22T01:48:35.258Z,13.00
2023-01-22T01:51:33.621Z,12.00
2023-01-22T01:54:02.437Z,12.90
2023-01-22T01:56:35.352Z,12.90
2023-01-22T01:59:09.030Z,12.63
2023-01-22T02:01:36.511Z,11.82
2023-01-22T02:04:03.423Z,12.07
2023-01-22T02:06:29.847Z,12.50
2023-01-22T02:08:57.696Z,14.02
2023-01-22T02:11:25.329Z,13.85
2023-01-22T02:13:57.760Z,11.85
2023-01-22T02:16:24.196Z,11.93
2023-01-22T02:18:50.937Z,12.55
2023-01-22T02:21:46.909Z,11.82
2023-01-22T02:24:17.267Z,11.77
2023-01-22T02:26:45.456Z,12.30
2023-01-22T02:29:13.922Z,11.48
2023-01-22T02:31:42.209Z,11.40
2023-01-22T02:34:09.864Z,10.80
2023-01-22T02:36:38.420Z,11.52
2023-01-22T02:39:05.256Z,10.65
2023-01-22T02:41:32.123Z,10.98
2023-01-22T02:43:58.804Z,11.23
2023-01-22T02:46:25.924Z,11.63
2023-01-22T02:48:52.468Z,11.18
2023-01-22T02:51:19.003Z,10.55
2023-01-22T02:53:45.460Z,10.57
2023-01-22T02:56:12.197Z,11.15
2023-01-22T02:58:38.687Z,10.13
2023-01-22T03:01:21.445Z,10.63
2023-01-22T03:03:51.939Z,9.70
2023-01-22T03:06:22.364Z,10.55
2023-01-22T03:08:59.503Z,10.32
2023-01-22T03:11:28.351Z,8.95
2023-01-22T03:14:15.007Z,8.82
2023-01-22T03:17:01.630Z,9.38
2023-01-22T03:19:47.000Z,8.70
2023-01-22T03:24:42.908Z,8.02
2023-01-22T03:27:09.481Z,8.73
2023-01-22T03:29:38.289Z,9.60
2023-01-22T03:32:06.052Z,9.57
2023-01-22T03:34:33.896Z,8.48
2023-01-22T03:37:00.407Z,8.25
2023-01-22T03:39:27.201Z,8.52
2023-01-22T03:41:53.945Z,8.95
2023-01-22T03:44:20.432Z,8.32
2023-01-22T03:46:46.960Z,8.13
2023-01-22T03:49:14.203Z,8.77
2023-01-22T03:51:43.039Z,7.60
2023-01-22T03:54:14.198Z,9.10
2023-01-22T03:56:41.977Z,7.93
2023-01-22T03:59:09.849Z,8.55
2023-01-22T04:01:36.977Z,7.60
2023-01-22T04:04:03.591Z,8.32
2023-01-22T04:06:30.575Z,7.10
2023-01-22T04:08:57.104Z,7.93
2023-01-22T04:11:24.112Z,8.43
2023-01-22T04:13:50.540Z,7.75
2023-01-22T04:16:17.191Z,7.05
2023-01-22T04:18:44.071Z,7.88
2023-01-22T04:21:10.717Z,7.93
2023-01-22T04:23:37.203Z,6.32
2023-01-22T04:26:03.892Z,7.32
2023-01-22T04:28:30.315Z,6.10
2023-01-22T04:30:57.166Z,7.13
2023-01-22T04:33:23.627Z,7.68
2023-01-22T04:35:52.686Z,6.93
2023-01-22T04:38:19.474Z,6.40
2023-01-22T04:40:46.091Z,6.57
2023-01-22T04:43:12.579Z,6.63
2023-01-22T04:45:39.287Z,6.28
2023-01-22T04:48:06.186Z,5.88
2023-01-22T04:50:33.616Z,6.93
2023-01-22T04:53:01.154Z,7.63
2023-01-22T04:55:28.902Z,6.63
2023-01-22T04:57:57.337Z,6.68
2023-01-22T05:00:25.058Z,6.05
2023-01-22T05:02:56.342Z,6.35
2023-01-22T05:05:22.965Z,6.03
2023-01-22T05:07:49.509Z,5.90
2023-01-22T05:10:16.784Z,6.43
2023-01-22T05:12:43.516Z,6.00
2023-01-22T05:15:23.220Z,7.55
2023-01-22T05:17:50.772Z,6.07
2023-01-22T05:20:17.960Z,6.90
2023-01-22T05:22:45.130Z,5.72
2023-01-22T05:25:12.147Z,5.78
2023-01-22T05:27:38.675Z,6.28
2023-01-22T05:30:06.235Z,5.57
2023-01-22T05:32:32.808Z,6.50
2023-01-22T05:34:59.404Z,6.95
2023-01-22T05:37:26.030Z,6.07
2023-01-22T05:39:52.632Z,6.30
2023-01-22T05:42:19.187Z,6.13
2023-01-22T05:44:45.918Z,5.40
2023-01-22T05:47:13.400Z,5.88
2023-01-22T05:49:40.371Z,5.95
2023-01-22T05:52:10.446Z,6.03
2023-01-22T05:54:39.200Z,6.20
2023-01-22T05:57:06.017Z,6.43
2023-01-22T05:59:32.577Z,6.13
2023-01-22T06:01:59.044Z,6.57
2023-01-22T06:04:25.618Z,5.70
2023-01-22T06:06:53.162Z,6.25
2023-01-22T06:09:19.655Z,6.68
2023-01-22T06:11:46.193Z,5.50
2023-01-22T06:14:12.603Z,6.32
2023-01-22T06:16:39.313Z,6.95
2023-01-22T06:19:06.429Z,6.28
2023-01-22T06:21:32.850Z,6.20
2023-01-22T06:23:59.297Z,7.00
2023-01-22T06:26:26.819Z,6.45
2023-01-22T06:28:55.094Z,6.47
2023-01-22T06:31:22.784Z,6.57
2023-01-22T06:33:49.239Z,7.07
2023-01-22T06:36:15.760Z,6.93
2023-01-22T06:38:42.175Z,7.95
2023-01-22T06:41:09.678Z,7.45
2023-01-22T06:43:37.469Z,7.40
2023-01-22T06:46:04.673Z,7.43
2023-01-22T06:48:31.127Z,7.53
2023-01-22T06:50:58.913Z,7.10
2023-01-22T06:53:25.920Z,7.25
2023-01-22T06:55:52.735Z,6.70
2023-01-22T06:58:19.172Z,7.22
2023-01-22T07:00:45.803Z,7.57
2023-01-22T07:03:13.358Z,7.18
2023-01-22T07:05:39.818Z,7.40
2023-01-22T07:08:07.425Z,7.60
2023-01-22T07:10:33.920Z,7.35
2023-01-22T07:13:01.478Z,11.27
2023-01-22T07:15:28.001Z,8.13
2023-01-22T07:17:54.880Z,7.32
2023-01-22T07:20:23.191Z,7.90
2023-01-22T07:22:51.419Z,6.85
2023-01-22T07:25:19.430Z,7.18
2023-01-22T07:27:46.074Z,7.15
2023-01-22T07:30:13.174Z,7.32
2023-01-22T07:32:41.202Z,6.72
2023-01-22T07:35:08.264Z,7.78
2023-01-22T07:37:36.244Z,7.75
2023-01-22T07:40:05.817Z,6.63
2023-01-22T07:42:32.223Z,7.25
2023-01-22T07:44:58.728Z,7.38
2023-01-22T07:47:25.188Z,7.78
2023-01-22T07:49:51.836Z,7.75
2023-01-22T07:52:18.258Z,7.55
2023-01-22T07:54:44.854Z,7.45
2023-01-22T07:57:15.300Z,8.20
2023-01-22T07:59:42.057Z,8.18
2023-01-22T08:02:15.308Z,7.75
2023-01-22T08:04:42.450Z,8.48
2023-01-22T08:07:19.500Z,8.77
2023-01-22T08:09:46.000Z,7.85
2023-01-22T08:12:12.553Z,8.45
2023-01-22T08:14:39.013Z,8.02
2023-01-22T08:17:06.517Z,8.05
2023-01-22T08:19:32.930Z,7.97
2023-01-22T08:21:59.388Z,8.00
2023-01-22T08:24:25.915Z,6.93
2023-01-22T08:26:52.363Z,7.57
2023-01-22T08:29:19.034Z,8.15
2023-01-22T08:31:45.554Z,7.82
2023-01-22T08:34:12.221Z,7.80
2023-01-22T08:36:38.630Z,8.48
2023-01-22T08:39:05.200Z,7.70
2023-01-22T08:41:31.594Z,7.68
2023-01-22T08:43:58.084Z,8.02
2023-01-22T08:46:24.745Z,7.30
2023-01-22T08:48:51.657Z,7.05
2023-01-22T08:51:18.226Z,6.72
2023-01-22T08:53:44.759Z,6.95
2023-01-22T08:56:11.362Z,6.50
2023-01-22T08:58:37.825Z,7.15
2023-01-22T09:01:04.514Z,6.47
2023-01-22T09:03:31.058Z,6.70
2023-01-22T09:05:58.884Z,6.90
2023-01-22T09:08:25.422Z,6.78
2023-01-22T09:10:51.978Z,7.22
2023-01-22T09:13:18.578Z,5.93
2023-01-22T09:15:45.101Z,6.13
2023-01-22T09:18:11.462Z,6.53
2023-01-22T09:20:38.064Z,6.45
2023-01-22T09:23:04.557Z,5.63
2023-01-22T09:25:32.030Z,5.95
2023-01-22T09:28:04.929Z,6.00
2023-01-22T09:30:32.102Z,5.38
2023-01-22T09:32:58.692Z,5.25
2023-01-22T09:35:26.759Z,5.65
2023-01-22T09:37:53.841Z,5.20
2023-01-22T09:40:26.207Z,5.85
2023-01-22T09:42:59.663Z,5.03
2023-01-22T09:45:26.933Z,4.95
2023-01-22T09:48:00.587Z,6.00
2023-01-22T09:50:30.219Z,5.53
2023-01-22T09:53:02.070Z,6.20
2023-01-22T09:55:33.521Z,6.82
2023-01-22T09:58:02.873Z,5.97
2023-01-22T10:00:53.280Z,5.82
2023-01-22T10:03:36.820Z,6.47
2023-01-22T10:06:10.420Z,11.70
2023-01-22T10:09:12.408Z,7.90
2023-01-22T10:11:39.156Z,7.53
2023-01-22T10:14:09.187Z,5.50
2023-01-22T10:16:37.130Z,6.15
2023-01-22T10:19:37.858Z,6.43
2023-01-22T10:22:17.783Z,6.05
2023-01-22T10:24:44.212Z,5.95
2023-01-22T10:27:16.907Z,5.45
2023-01-22T10:29:46.194Z,4.97
2023-01-22T10:32:23.615Z,5.18
2023-01-22T10:35:16.211Z,5.30
2023-01-22T10:37:52.541Z,5.40
2023-01-22T10:40:37.951Z,5.50
2023-01-22T10:45:33.162Z,5.30
2023-01-22T10:48:06.598Z,5.55
2023-01-22T10:50:33.085Z,5.13
2023-01-22T10:52:59.602Z,4.95
2023-01-22T10:55:32.123Z,5.03
2023-01-22T10:58:02.830Z,5.05
2023-01-22T11:00:50.855Z,5.28
2023-01-22T11:03:24.249Z,5.72
2023-01-22T11:06:02.481Z,5.65
2023-01-22T11:08:40.383Z,6.00
2023-01-22T11:11:11.002Z,5.70
2023-01-22T11:13:51.345Z,5.20
2023-01-22T11:16:21.077Z,4.93
2023-01-22T11:19:36.505Z,5.10
2023-01-22T11:22:14.697Z,6.28
2023-01-22T11:24:47.216Z,5.28
2023-01-22T11:27:32.732Z,6.22
2023-01-22T11:33:13.386Z,5.03
2023-01-22T11:35:58.873Z,5.30
2023-01-22T11:41:14.322Z,6.35
2023-01-22T11:43:57.934Z,5.28
2023-01-22T11:46:24.367Z,5.25
2023-01-22T11:49:02.939Z,4.97
2023-01-22T11:51:36.186Z,5.45
2023-01-22T11:54:05.696Z,5.25
2023-01-22T11:56:54.011Z,5.22
2023-01-22T11:59:45.683Z,6.13
2023-01-22T12:02:20.945Z,5.45
2023-01-22T12:05:01.137Z,6.28
2023-01-22T12:07:46.046Z,5.93
2023-01-22T12:10:21.603Z,6.10
2023-01-22T12:13:10.097Z,6.65
2023-01-22T12:15:48.212Z,7.53
2023-01-22T12:18:20.814Z,6.63
2023-01-22T12:21:06.895Z,6.55
2023-01-22T12:23:43.857Z,6.15
2023-01-22T12:26:17.435Z,5.65
2023-01-22T12:29:09.700Z,5.78
2023-01-22T12:31:43.254Z,6.00
2023-01-22T12:34:27.752Z,5.70
2023-01-22T12:36:55.591Z,5.70
2023-01-22T12:39:41.665Z,6.07
2023-01-22T12:42:27.564Z,6.03
2023-01-22T12:45:16.353Z,6.75
2023-01-22T12:47:54.674Z,6.05
2023-01-22T12:50:23.888Z,5.45
2023-01-22T12:53:05.700Z,5.93
2023-01-22T12:55:44.216Z,6.05
2023-01-22T12:58:25.101Z,5.32
2023-01-22T13:01:24.068Z,5.13
2023-01-22T13:03:59.905Z,5.43
2023-01-22T13:06:35.734Z,5.50
2023-01-22T13:09:05.180Z,6.60
2023-01-22T13:11:35.813Z,7.13
2023-01-22T13:14:22.645Z,5.78
2023-01-22T13:17:24.567Z,5.60
2023-01-22T13:19:52.787Z,5.70
2023-01-22T13:22:22.664Z,5.18
2023-01-22T13:24:57.831Z,5.85
2023-01-22T13:27:26.712Z,6.03
2023-01-22T13:30:06.725Z,5.90
2023-01-22T13:32:33.256Z,4.75
2023-01-22T13:35:04.904Z,4.90
2023-01-22T13:37:31.696Z,5.05
2023-01-22T13:39:58.254Z,5.15
2023-01-22T13:42:27.232Z,4.75
2023-01-22T13:44:56.349Z,5.15
2023-01-22T13:47:35.371Z,4.82
2023-01-22T13:50:02.563Z,4.63
2023-01-22T13:52:29.574Z,5.80
2023-01-22T13:55:16.420Z,4.63
2023-01-22T13:57:47.938Z,4.63
2023-01-22T14:00:23.629Z,3.90
2023-01-22T14:02:50.471Z,4.32
2023-01-22T14:05:25.543Z,4.00
2023-01-22T14:10:29.331Z,4.57
2023-01-22T14:13:11.024Z,4.30
2023-01-22T14:15:38.935Z,4.80
2023-01-22T14:18:14.112Z,4.55
2023-01-22T14:20:41.829Z,4.45
2023-01-22T14:23:08.991Z,3.97
2023-01-22T14:25:40.797Z,4.82
2023-01-22T14:28:07.503Z,4.60
2023-01-22T14:30:34.219Z,4.00
2023-01-22T14:33:00.913Z,4.28
2023-01-22T14:35:27.790Z,4.28
2023-01-22T14:37:55.389Z,4.20
2023-01-22T14:40:24.122Z,4.47
2023-01-22T14:42:51.543Z,4.75
2023-01-22T14:45:19.649Z,3.55
2023-01-22T14:47:51.742Z,3.90
2023-01-22T14:50:19.306Z,4.28
2023-01-22T14:52:46.568Z,4.10
2023-01-22T14:55:13.372Z,4.13
2023-01-22T14:57:40.280Z,4.47
2023-01-22T15:00:07.861Z,4.22
2023-01-22T15:02:37.426Z,3.95
2023-01-22T15:05:04.266Z,4.22
2023-01-22T15:07:30.741Z,3.88
2023-01-22T15:09:57.119Z,4.15
2023-01-22T15:12:23.768Z,4.00
2023-01-22T15:14:50.150Z,4.18
2023-01-22T15:17:16.825Z,4.38
2023-01-22T15:19:43.297Z,4.32
2023-01-22T15:22:10.178Z,4.60
2023-01-22T15:24:39.242Z,4.85
2023-01-22T15:27:06.432Z,4.72
2023-01-22T15:29:33.133Z,4.20
2023-01-22T15:31:59.793Z,4.30
2023-01-22T15:34:26.191Z,4.20
2023-01-22T15:36:53.023Z,4.47
2023-01-22T15:39:19.544Z,4.35
2023-01-22T15:41:46.181Z,4.85
2023-01-22T15:44:14.027Z,4.82
2023-01-22T15:46:42.233Z,5.03
2023-01-22T15:49:10.467Z,4.72
2023-01-22T15:51:36.945Z,5.90
2023-01-22T15:54:05.240Z,6.85
2023-01-22T15:56:35.201Z,5.20
2023-01-22T15:59:02.164Z,4.85
2023-01-22T16:01:28.925Z,4.43
2023-01-22T16:03:55.840Z,5.30
2023-01-22T16:06:27.674Z,4.60
2023-01-22T16:08:57.581Z,5.20
2023-01-22T16:11:25.104Z,5.38
2023-01-22T16:13:51.578Z,5.57
2023-01-22T16:16:37.796Z,5.72
2023-01-22T16:19:07.364Z,4.97
2023-01-22T16:21:34.948Z,4.90
2023-01-22T16:24:02.467Z,5.25
2023-01-22T16:26:32.598Z,5.85
2023-01-22T16:29:01.811Z,5.82
2023-01-22T16:31:30.970Z,6.00
2023-01-22T16:34:00.343Z,5.93
2023-01-22T16:36:29.377Z,5.22
2023-01-22T16:38:56.115Z,5.90
2023-01-22T16:41:30.423Z,6.05
2023-01-22T16:44:08.316Z,5.57
2023-01-22T16:46:37.270Z,5.20
2023-01-22T16:49:06.938Z,6.13
2023-01-22T16:51:37.554Z,5.97
2023-01-22T16:54:05.677Z,11.85
2023-01-22T16:56:32.855Z,24.85
2023-01-22T16:59:00.060Z,11.50
2023-01-22T17:01:28.944Z,9.63
2023-01-22T17:03:55.532Z,7.70
2023-01-22T17:06:32.653Z,7.47
2023-01-22T17:08:59.957Z,9.55
2023-01-22T17:11:26.783Z,6.40
2023-01-22T17:13:53.675Z,6.38
2023-01-22T17:16:20.219Z,6.97
2023-01-22T17:18:46.790Z,7.15
2023-01-22T17:21:15.813Z,12.95
2023-01-22T17:23:42.393Z,9.98
2023-01-22T17:26:14.473Z,7.93
2023-01-22T17:28:41.870Z,7.13
2023-01-22T17:31:11.591Z,6.70
2023-01-22T17:33:39.157Z,6.10
2023-01-22T17:36:06.387Z,6.10
2023-01-22T17:38:37.581Z,6.30
2023-01-22T17:41:12.158Z,6.60
2023-01-22T17:43:38.856Z,6.32
2023-01-22T17:46:10.855Z,6.68
2023-01-22T17:48:37.752Z,6.93
2023-01-22T17:51:06.277Z,6.00
2023-01-22T17:53:35.620Z,6.40
2023-01-22T17:56:09.372Z,5.38
2023-01-22T17:58:37.563Z,6.07
2023-01-22T18:01:06.853Z,6.18
2023-01-22T18:03:34.249Z,5.95
2023-01-22T18:06:02.342Z,5.97
2023-01-22T18:08:30.430Z,6.07
2023-01-22T18:10:59.072Z,5.93
2023-01-22T18:13:26.054Z,5.20
2023-01-22T18:15:52.908Z,7.38
2023-01-22T18:18:19.486Z,6.93
2023-01-22T18:20:47.041Z,7.28
2023-01-22T18:23:14.909Z,6.57
2023-01-22T18:25:46.666Z,6.60
2023-01-22T18:28:15.071Z,7.00
2023-01-22T18:30:41.841Z,6.95
2023-01-22T18:33:10.259Z,6.45
2023-01-22T18:35:37.223Z,5.97
2023-01-22T18:38:03.620Z,5.60
2023-01-22T18:40:31.323Z,7.10
2023-01-22T18:42:58.024Z,6.55
2023-01-22T18:45:25.187Z,7.38
2023-01-22T18:47:54.812Z,6.55
2023-01-22T18:50:22.271Z,6.55
2023-01-22T18:52:49.340Z,6.90
2023-01-22T18:55:16.917Z,6.47
2023-01-22T18:57:46.280Z,7.00
2023-01-22T19:00:15.001Z,8.85
2023-01-22T19:02:41.623Z,16.27
2023-01-22T19:05:08.388Z,15.80
2023-01-22T19:07:38.061Z,18.70
2023-01-22T19:10:06.395Z,14.75
2023-01-22T19:12:33.074Z,13.52
2023-01-22T19:14:59.575Z,14.70
2023-01-22T19:17:26.576Z,18.15
2023-01-22T19:19:52.977Z,18.55
2023-01-22T19:22:19.421Z,19.63
2023-01-22T19:24:45.938Z,20.30
2023-01-22T19:27:12.536Z,21.88
2023-01-22T19:29:39.619Z,22.25
2023-01-22T19:32:06.465Z,24.35
2023-01-22T19:34:33.134Z,26.10
2023-01-22T19:37:02.183Z,22.85
2023-01-22T19:39:29.357Z,22.77
2023-01-22T19:41:56.600Z,17.15
2023-01-22T19:44:23.157Z,13.80
2023-01-22T19:46:49.776Z,12.95
2023-01-22T19:49:16.353Z,12.10
2023-01-22T19:51:42.964Z,12.98
2023-01-22T19:54:10.198Z,13.82
2023-01-22T19:56:38.996Z,11.80
2023-01-22T19:59:08.053Z,11.73
2023-01-22T20:01:36.688Z,11.85
2023-01-22T20:04:04.288Z,10.73
2023-01-22T20:06:30.863Z,10.80
2023-01-22T20:08:57.396Z,10.10
2023-01-22T20:11:25.301Z,10.55
2023-01-22T20:13:52.479Z,12.00
2023-01-22T20:16:25.680Z,11.18
2023-01-22T20:18:54.083Z,11.02
2023-01-22T20:21:22.115Z,9.98
2023-01-22T20:23:50.014Z,10.57
2023-01-22T20:26:18.204Z,9.82
2023-01-22T20:28:45.455Z,8.70
2023-01-22T20:31:14.732Z,8.95
2023-01-22T20:33:41.307Z,9.38
2023-01-22T20:36:09.619Z,9.30
2023-01-22T20:38:36.892Z,9.05
2023-01-22T20:41:09.309Z,10.52
2023-01-22T20:43:39.088Z,8.95
2023-01-22T20:46:08.488Z,9.27
2023-01-22T20:48:35.930Z,9.60
2023-01-22T20:51:03.459Z,9.07
2023-01-22T20:53:32.026Z,10.27
2023-01-22T20:56:01.854Z,10.23
2023-01-22T20:58:29.592Z,10.10
2023-01-22T21:01:02.115Z,10.02
2023-01-22T21:03:28.744Z,9.90
2023-01-22T21:05:55.275Z,10.55
2023-01-22T21:08:21.801Z,9.70
2023-01-22T21:11:03.484Z,8.98
2023-01-22T21:13:30.109Z,9.77
2023-01-22T21:15:57.073Z,9.25
2023-01-22T21:18:24.132Z,10.00
2023-01-22T21:20:50.568Z,9.70
2023-01-22T21:23:17.357Z,8.98
2023-01-22T21:25:43.782Z,9.95
2023-01-22T21:28:10.876Z,9.30
2023-01-22T21:30:37.675Z,9.35
2023-01-22T21:33:04.366Z,8.73
2023-01-22T21:35:30.831Z,9.80
2023-01-22T21:37:57.394Z,9.13
2023-01-22T21:40:24.009Z,8.20
2023-01-22T21:43:11.378Z,8.60
2023-01-22T21:46:01.630Z,8.50
2023-01-22T21:48:29.362Z,8.68
2023-01-22T21:50:55.989Z,8.05
2023-01-22T21:53:22.473Z,8.70
2023-01-22T21:55:53.408Z,9.13
2023-01-22T21:58:20.779Z,8.95
2023-01-22T22:00:47.312Z,8.32
2023-01-22T22:03:13.886Z,8.90
2023-01-22T22:05:40.643Z,7.32
2023-01-22T22:08:07.132Z,8.57
2023-01-22T22:10:33.733Z,9.10
2023-01-22T22:13:00.185Z,9.73
2023-01-22T22:15:26.722Z,10.18
2023-01-22T22:17:53.146Z,10.60
2023-01-22T22:20:20.057Z,11.05
2023-01-22T22:22:46.851Z,10.25
2023-01-22T22:25:13.463Z,10.85
2023-01-22T22:27:39.856Z,11.80
2023-01-22T22:30:07.090Z,11.68
2023-01-22T22:32:33.508Z,9.73
2023-01-22T22:34:59.921Z,10.05
2023-01-22T22:37:26.595Z,9.30
2023-01-22T22:39:53.037Z,8.75
2023-01-22T22:42:19.561Z,8.43
2023-01-22T22:44:45.982Z,8.75
2023-01-22T22:47:12.604Z,8.07
2023-01-22T22:49:39.070Z,8.90
2023-01-22T22:52:05.898Z,8.85
2023-01-22T22:54:32.301Z,8.85
2023-01-22T22:56:58.876Z,8.40
2023-01-22T22:59:25.385Z,8.75
2023-01-22T23:01:52.075Z,9.07
2023-01-22T23:04:18.578Z,9.40
2023-01-22T23:06:46.238Z,9.43
2023-01-22T23:09:15.734Z,8.60
2023-01-22T23:11:43.616Z,9.32
2023-01-22T23:14:10.865Z,8.73
2023-01-22T23:16:42.860Z,9.45
2023-01-22T23:19:16.766Z,8.85
2023-01-22T23:21:44.258Z,9.13
2023-01-22T23:24:13.042Z,9.43
2023-01-22T23:26:40.791Z,8.48
2023-01-22T23:29:09.883Z,10.25
2023-01-22T23:31:38.274Z,9.13
2023-01-22T23:34:12.149Z,9.10
2023-01-22T23:36:40.874Z,9.68
2023-01-22T23:39:07.639Z,10.25
2023-01-22T23:41:34.068Z,9.55
2023-01-22T23:44:00.990Z,9.48
2023-01-22T23:46:30.776Z,9.40
2023-01-22T23:48:59.027Z,10.10
2023-01-22T23:51:26.956Z,10.13
2023-01-22T23:53:54.584Z,10.10
2023-01-22T23:56:23.929Z,9.57
2023-01-22T23:58:54.788Z,10.63
